createdAt,value
2023-03-04T00:01:00.936Z,100.00
2023-03-04T00:03:28.616Z,100.00
2023-03-04T00:05:56.282Z,100.00
2023-03-04T00:08:23.966Z,100.00
2023-03-04T00:10:51.527Z,100.00
2023-03-04T00:13:21.085Z,100.00
2023-03-04T00:15:50.132Z,100.00
2023-03-04T00:18:17.738Z,100.00
2023-03-04T00:20:45.356Z,100.00
2023-03-04T00:23:13.026Z,100.00
2023-03-04T00:25:43.490Z,100.00
2023-03-04T00:28:11.286Z,100.00
2023-03-04T00:30:39.927Z,100.00
2023-03-04T00:33:08.963Z,100.00
2023-03-04T00:35:36.726Z,100.00
2023-03-04T00:38:04.550Z,100.00
2023-03-04T00:40:32.208Z,100.00
2023-03-04T00:42:59.824Z,100.00
2023-03-04T00:45:27.513Z,100.00
2023-03-04T00:47:55.172Z,100.00
2023-03-04T00:50:24.208Z,100.00
2023-03-04T00:52:51.892Z,100.00
2023-03-04T00:55:19.645Z,100.00
2023-03-04T00:57:47.290Z,100.00
2023-03-04T01:00:16.370Z,100.00
2023-03-04T01:02:44.056Z,100.00
2023-03-04T01:05:12.001Z,100.00
2023-03-04T01:07:41.059Z,100.00
2023-03-04T01:10:09.730Z,100.00
2023-03-04T01:12:37.424Z,100.00
2023-03-04T01:15:05.599Z,100.00
2023-03-04T01:17:33.402Z,100.00
2023-03-04T01:20:01.068Z,100.00
2023-03-04T01:22:28.701Z,100.00
2023-03-04T01:24:57.708Z,100.00
2023-03-04T01:27:26.835Z,100.00
2023-03-04T01:29:54.492Z,100.00
2023-03-04T01:32:23.516Z,100.00
2023-03-04T01:34:51.212Z,100.00
2023-03-04T01:37:18.817Z,100.00
2023-03-04T01:39:47.441Z,100.00
2023-03-04T01:42:21.253Z,100.00
2023-03-04T01:44:49.013Z,100.00
2023-03-04T01:47:16.830Z,100.00
2023-03-04T01:49:44.493Z,100.00
2023-03-04T01:52:12.631Z,100.00
2023-03-04T01:54:40.496Z,100.00
2023-03-04T01:57:08.770Z,97.03
2023-03-04T01:59:39.526Z,100.00
2023-03-04T02:02:07.153Z,100.00
2023-03-04T02:04:34.993Z,100.00
2023-03-04T02:07:03.090Z,100.00
2023-03-04T02:09:30.900Z,100.00
2023-03-04T02:11:58.555Z,100.00
2023-03-04T02:14:26.343Z,100.00
2023-03-04T02:16:55.401Z,100.00
2023-03-04T02:19:25.933Z,100.00
2023-03-04T02:21:53.583Z,100.00
2023-03-04T02:24:23.526Z,100.00
2023-03-04T02:26:52.541Z,100.00
2023-03-04T02:29:20.272Z,100.00
2023-03-04T02:31:48.461Z,100.00
2023-03-04T02:34:16.777Z,100.00
2023-03-04T02:36:44.556Z,100.00
2023-03-04T02:39:12.919Z,100.00
2023-03-04T02:41:40.944Z,100.00
2023-03-04T02:44:12.506Z,100.00
2023-03-04T02:46:40.254Z,100.00
2023-03-04T02:49:09.158Z,100.00
2023-03-04T02:51:36.766Z,100.00
2023-03-04T02:54:04.563Z,87.26
2023-03-04T02:56:32.480Z,100.00
2023-03-04T02:59:00.184Z,100.00
2023-03-04T03:01:30.787Z,100.00
2023-03-04T03:03:58.453Z,100.00
2023-03-04T03:06:26.261Z,100.00
2023-03-04T03:08:53.901Z,100.00
2023-03-04T03:11:21.572Z,100.00
2023-03-04T03:13:49.263Z,100.00
2023-03-04T03:16:17.049Z,100.00
2023-03-04T03:18:46.147Z,100.00
2023-03-04T03:21:13.761Z,100.00
2023-03-04T03:23:41.418Z,100.00
2023-03-04T03:26:09.100Z,100.00
2023-03-04T03:28:36.796Z,100.00
2023-03-04T03:31:04.479Z,100.00
2023-03-04T03:33:32.203Z,100.00
2023-03-04T03:36:01.572Z,100.00
2023-03-04T03:38:29.445Z,100.00
2023-03-04T03:40:57.075Z,100.00
2023-03-04T03:43:24.694Z,100.00
2023-03-04T03:45:52.894Z,100.00
2023-03-04T03:48:20.502Z,100.00
2023-03-04T03:50:48.124Z,100.00
2023-03-04T03:53:17.131Z,100.00
2023-03-04T03:55:44.863Z,100.00
2023-03-04T03:58:12.548Z,100.00
2023-03-04T04:00:40.193Z,100.00
2023-03-04T04:03:07.828Z,100.00
2023-03-04T04:05:35.555Z,100.00
2023-03-04T04:08:03.220Z,100.00
2023-03-04T04:10:32.232Z,100.00
2023-03-04T04:13:00.254Z,100.00
2023-03-04T04:15:27.882Z,100.00
2023-03-04T04:17:55.480Z,100.00
2023-03-04T04:20:25.756Z,100.00
2023-03-04T04:22:56.551Z,100.00
2023-03-04T04:25:24.198Z,100.00
2023-03-04T04:27:53.143Z,100.00
2023-03-04T04:30:20.782Z,100.00
2023-03-04T04:32:48.391Z,100.00
2023-03-04T04:35:15.977Z,100.00
2023-03-04T04:37:43.560Z,100.00
2023-03-04T04:40:11.718Z,100.00
2023-03-04T04:42:39.383Z,100.00
2023-03-04T04:45:09.393Z,100.00
2023-03-04T04:47:37.056Z,100.00
2023-03-04T04:50:04.939Z,100.00
2023-03-04T04:52:32.553Z,93.76
2023-03-04T04:55:00.189Z,100.00
2023-03-04T04:57:27.846Z,100.00
2023-03-04T04:59:55.498Z,100.00
2023-03-04T05:02:24.459Z,100.00
2023-03-04T05:04:52.093Z,100.00
2023-03-04T05:07:19.680Z,100.00
2023-03-04T05:09:47.300Z,100.00
2023-03-04T05:12:14.942Z,100.00
2023-03-04T05:14:42.594Z,100.00
2023-03-04T05:17:10.232Z,100.00
2023-03-04T05:19:39.223Z,100.00
2023-03-04T05:22:06.827Z,100.00
2023-03-04T05:24:34.798Z,100.00
2023-03-04T05:27:02.608Z,100.00
2023-03-04T05:29:30.262Z,100.00
2023-03-04T05:31:57.956Z,100.00
2023-03-04T05:34:25.662Z,100.00
2023-03-04T05:36:54.672Z,100.00
2023-03-04T05:39:22.388Z,100.00
2023-03-04T05:41:50.049Z,100.00
2023-03-04T05:44:17.795Z,100.00
2023-03-04T05:46:45.454Z,100.00
2023-03-04T05:49:13.041Z,100.00
2023-03-04T05:51:40.643Z,100.00
2023-03-04T05:54:09.628Z,100.00
2023-03-04T05:56:37.199Z,100.00
2023-03-04T05:59:04.793Z,100.00
2023-03-04T06:01:32.442Z,100.00
2023-03-04T06:04:00.241Z,100.00
2023-03-04T06:06:27.983Z,100.00
2023-03-04T06:08:55.641Z,100.00
2023-03-04T06:11:24.661Z,100.00
2023-03-04T06:13:52.325Z,100.00
2023-03-04T06:16:20.052Z,100.00
2023-03-04T06:18:47.750Z,100.00
2023-03-04T06:21:15.385Z,100.00
2023-03-04T06:23:43.314Z,100.00
2023-03-04T06:26:15.315Z,100.00
2023-03-04T06:28:44.486Z,100.00
2023-03-04T06:31:12.223Z,100.00
2023-03-04T06:33:40.028Z,100.00
2023-03-04T06:36:08.107Z,100.00
2023-03-04T06:38:36.178Z,100.00
2023-03-04T06:41:07.492Z,100.00
2023-03-04T06:43:35.103Z,100.00
2023-03-04T06:46:04.075Z,100.00
2023-03-04T06:48:31.745Z,100.00
2023-03-04T06:50:59.468Z,100.00
2023-03-04T06:53:27.119Z,100.00
2023-03-04T06:55:54.721Z,100.00
2023-03-04T06:58:22.383Z,100.00
2023-03-04T07:00:50.077Z,100.00
2023-03-04T07:03:19.139Z,100.00
2023-03-04T07:05:46.787Z,100.00
2023-03-04T07:08:18.907Z,100.00
2023-03-04T07:10:47.778Z,100.00
2023-03-04T07:13:15.369Z,100.00
2023-03-04T07:15:42.995Z,100.00
2023-03-04T07:18:10.567Z,100.00
2023-03-04T07:20:39.523Z,100.00
2023-03-04T07:23:07.544Z,100.00
2023-03-04T07:25:35.174Z,100.00
2023-03-04T07:28:02.764Z,100.00
2023-03-04T07:30:30.465Z,100.00
2023-03-04T07:32:58.209Z,100.00
2023-03-04T07:35:25.841Z,100.00
2023-03-04T07:37:54.822Z,100.00
2023-03-04T07:40:22.382Z,100.00
2023-03-04T07:42:50.800Z,100.00
2023-03-04T07:45:18.402Z,100.00
2023-03-04T07:47:46.159Z,100.00
2023-03-04T07:50:14.686Z,100.00
2023-03-04T07:52:43.964Z,100.00
2023-03-04T07:55:13.530Z,100.00
2023-03-04T07:57:41.518Z,100.00
2023-03-04T08:00:10.141Z,100.00
2023-03-04T08:02:40.519Z,100.00
2023-03-04T08:05:08.723Z,100.00
2023-03-04T08:07:36.569Z,100.00
2023-03-04T08:10:04.413Z,100.00
2023-03-04T08:12:33.383Z,100.00
2023-03-04T08:15:00.989Z,100.00
2023-03-04T08:17:29.708Z,100.00
2023-03-04T08:19:57.344Z,100.00
2023-03-04T08:22:25.010Z,100.00
2023-03-04T08:24:52.633Z,100.00
2023-03-04T08:27:20.238Z,100.00
2023-03-04T08:29:49.217Z,100.00
2023-03-04T08:32:16.965Z,100.00
2023-03-04T08:34:44.721Z,100.00
2023-03-04T08:37:12.348Z,100.00
2023-03-04T08:39:40.098Z,100.00
2023-03-04T08:42:07.708Z,100.00
2023-03-04T08:44:35.329Z,100.00
2023-03-04T08:47:04.327Z,100.00
2023-03-04T08:49:31.985Z,100.00
2023-03-04T08:51:59.686Z,100.00
2023-03-04T08:54:27.262Z,100.00
2023-03-04T08:56:54.929Z,100.00
2023-03-04T08:59:22.522Z,100.00
2023-03-04T09:01:50.210Z,100.00
2023-03-04T09:04:19.194Z,100.00
2023-03-04T09:06:46.797Z,100.00
2023-03-04T09:09:14.450Z,100.00
2023-03-04T09:11:42.055Z,100.00
2023-03-04T09:14:09.681Z,100.00
2023-03-04T09:16:37.242Z,100.00
2023-03-04T09:19:04.880Z,100.00
2023-03-04T09:21:33.828Z,100.00
2023-03-04T09:24:01.492Z,100.00
2023-03-04T09:26:29.664Z,100.00
2023-03-04T09:28:57.845Z,100.00
2023-03-04T09:31:25.739Z,100.00
2023-03-04T09:33:53.577Z,100.00
2023-03-04T09:36:21.195Z,100.00
2023-03-04T09:38:50.234Z,100.00
2023-03-04T09:41:18.426Z,100.00
2023-03-04T09:43:46.055Z,100.00
2023-03-04T09:46:14.370Z,100.00
2023-03-04T09:48:45.655Z,100.00
2023-03-04T09:51:18.806Z,100.00
2023-03-04T09:53:49.038Z,100.00
2023-03-04T09:56:18.079Z,100.00
2023-03-04T09:58:48.053Z,89.20
2023-03-04T10:01:19.089Z,100.00
2023-03-04T10:03:48.344Z,100.00
2023-03-04T10:06:17.646Z,100.00
2023-03-04T10:08:46.810Z,97.92
2023-03-04T10:11:15.868Z,86.68
2023-03-04T10:13:47.777Z,87.36
2023-03-04T10:16:16.052Z,90.55
2023-03-04T10:18:45.237Z,79.60
2023-03-04T10:21:21.033Z,79.56
2023-03-04T10:23:49.129Z,74.92
2023-03-04T10:26:17.228Z,69.83
2023-03-04T10:28:46.141Z,68.54
2023-03-04T10:31:16.534Z,74.67
2023-03-04T10:33:44.173Z,69.22
2023-03-04T10:36:18.617Z,63.35
2023-03-04T10:38:46.501Z,58.86
2023-03-04T10:41:14.782Z,64.72
2023-03-04T10:43:45.170Z,58.99
2023-03-04T10:46:14.447Z,68.16
2023-03-04T10:48:42.245Z,61.17
2023-03-04T10:51:14.729Z,57.85
2023-03-04T10:53:42.556Z,57.29
2023-03-04T10:56:25.038Z,59.72
2023-03-04T10:58:52.660Z,55.45
2023-03-04T11:01:25.141Z,55.30
2023-03-04T11:03:52.896Z,54.52
2023-03-04T11:06:21.096Z,55.92
2023-03-04T11:08:54.464Z,55.60
2023-03-04T11:11:31.087Z,55.18
2023-03-04T11:13:59.716Z,55.90
2023-03-04T11:16:30.815Z,53.60
2023-03-04T11:18:59.827Z,53.43
2023-03-04T11:21:28.465Z,55.48
2023-03-04T11:23:57.346Z,57.27
2023-03-04T11:26:25.428Z,54.64
2023-03-04T11:28:53.637Z,58.54
2023-03-04T11:31:21.843Z,57.62
2023-03-04T11:33:52.064Z,56.78
2023-03-04T11:36:24.568Z,54.28
2023-03-04T11:38:52.417Z,56.79
2023-03-04T11:41:22.026Z,55.46
2023-03-04T11:43:49.698Z,54.99
2023-03-04T11:46:36.532Z,51.10
2023-03-04T11:49:10.812Z,53.55
2023-03-04T11:51:39.262Z,55.77
2023-03-04T11:54:09.864Z,53.06
2023-03-04T11:56:38.151Z,55.31
2023-03-04T11:59:29.583Z,54.27
2023-03-04T12:02:00.343Z,56.12
2023-03-04T12:04:32.329Z,56.21
2023-03-04T12:07:04.380Z,51.15
2023-03-04T12:09:33.903Z,52.56
2023-03-04T12:12:04.113Z,54.91
2023-03-04T12:14:32.264Z,53.12
2023-03-04T12:17:03.612Z,52.50
2023-03-04T12:19:35.155Z,54.47
2023-03-04T12:22:10.077Z,55.50
2023-03-04T12:24:41.520Z,56.23
2023-03-04T12:27:10.793Z,56.22
2023-03-04T12:29:39.262Z,55.86
2023-03-04T12:32:09.003Z,54.43
2023-03-04T12:34:43.902Z,55.42
2023-03-04T12:37:20.828Z,54.37
2023-03-04T12:39:50.516Z,54.50
2023-03-04T12:42:20.782Z,52.05
2023-03-04T12:44:48.911Z,53.29
2023-03-04T12:47:22.764Z,54.35
2023-03-04T12:49:55.627Z,53.62
2023-03-04T12:52:25.010Z,50.26
2023-03-04T12:54:52.962Z,48.41
2023-03-04T12:57:21.682Z,47.29
2023-03-04T12:59:51.298Z,50.93
2023-03-04T13:02:28.661Z,48.96
2023-03-04T13:05:00.715Z,48.08
2023-03-04T13:07:31.948Z,47.78
2023-03-04T13:10:00.124Z,48.00
2023-03-04T13:12:27.770Z,49.73
2023-03-04T13:15:10.381Z,46.68
2023-03-04T13:17:42.085Z,47.75
2023-03-04T13:20:20.835Z,48.09
2023-03-04T13:22:49.450Z,46.05
2023-03-04T13:25:33.369Z,47.72
2023-03-04T13:28:20.937Z,46.18
2023-03-04T13:31:15.575Z,48.55
2023-03-04T13:33:54.103Z,46.94
2023-03-04T13:36:28.588Z,45.64
2023-03-04T13:39:00.410Z,45.56
2023-03-04T13:41:31.897Z,44.32
2023-03-04T13:43:59.640Z,46.52
2023-03-04T13:46:30.842Z,50.60
2023-03-04T13:49:03.216Z,49.03
2023-03-04T13:51:32.824Z,46.90
2023-03-04T13:54:07.973Z,45.52
2023-03-04T13:56:37.482Z,49.36
2023-03-04T13:59:10.021Z,49.89
2023-03-04T14:01:38.639Z,49.93
2023-03-04T14:04:11.787Z,49.70
2023-03-04T14:06:44.533Z,47.37
2023-03-04T14:09:14.046Z,49.02
2023-03-04T14:11:42.682Z,47.61
2023-03-04T14:14:11.716Z,46.04
2023-03-04T14:16:40.016Z,46.10
2023-03-04T14:19:07.914Z,48.41
2023-03-04T14:21:36.759Z,46.96
2023-03-04T14:24:07.303Z,46.13
2023-03-04T14:26:34.966Z,46.71
2023-03-04T14:29:03.027Z,48.30
2023-03-04T14:31:31.443Z,46.97
2023-03-04T14:34:02.127Z,45.88
2023-03-04T14:36:30.988Z,46.08
2023-03-04T14:38:59.264Z,48.32
2023-03-04T14:41:28.729Z,48.27
2023-03-04T14:43:58.161Z,48.11
2023-03-04T14:46:25.851Z,49.73
2023-03-04T14:48:54.010Z,48.12
2023-03-04T14:51:34.710Z,47.76
2023-03-04T14:54:02.322Z,45.79
2023-03-04T14:56:31.466Z,44.88
2023-03-04T14:58:59.347Z,45.91
2023-03-04T15:01:30.615Z,45.26
2023-03-04T15:04:01.524Z,45.40
2023-03-04T15:06:29.623Z,45.92
2023-03-04T15:08:58.509Z,45.20
2023-03-04T15:11:26.535Z,45.64
2023-03-04T15:13:55.868Z,45.27
2023-03-04T15:16:24.044Z,45.46
2023-03-04T15:18:55.030Z,44.25
2023-03-04T15:21:30.026Z,44.76
2023-03-04T15:23:57.580Z,43.60
2023-03-04T15:26:25.817Z,46.64
2023-03-04T15:28:54.782Z,47.19
2023-03-04T15:31:23.333Z,45.08
2023-03-04T15:33:50.933Z,43.74
2023-03-04T15:36:19.332Z,43.72
2023-03-04T15:38:47.707Z,43.53
2023-03-04T15:41:17.045Z,45.28
2023-03-04T15:43:44.688Z,44.94
2023-03-04T15:46:16.233Z,45.48
2023-03-04T15:48:45.429Z,46.47
2023-03-04T15:51:14.263Z,47.55
2023-03-04T15:53:42.510Z,46.79
2023-03-04T15:56:11.582Z,50.12
2023-03-04T15:58:39.444Z,48.85
2023-03-04T16:01:07.124Z,48.37
2023-03-04T16:03:36.126Z,49.81
2023-03-04T16:06:03.672Z,48.86
2023-03-04T16:08:31.410Z,48.46
2023-03-04T16:10:58.976Z,45.81
2023-03-04T16:13:26.542Z,46.83
2023-03-04T16:15:54.175Z,46.49
2023-03-04T16:18:21.823Z,45.76
2023-03-04T16:20:50.874Z,44.60
2023-03-04T16:23:19.957Z,44.25
2023-03-04T16:25:48.495Z,43.82
2023-03-04T16:28:16.102Z,45.21
2023-03-04T16:30:44.064Z,45.67
2023-03-04T16:33:12.482Z,43.04
2023-03-04T16:35:40.480Z,45.25
2023-03-04T16:38:13.467Z,44.52
2023-03-04T16:40:41.082Z,46.22
2023-03-04T16:43:10.055Z,46.70
2023-03-04T16:45:37.987Z,47.23
2023-03-04T16:48:06.051Z,45.89
2023-03-04T16:50:33.835Z,45.88
2023-03-04T16:53:01.440Z,43.76
2023-03-04T16:55:30.511Z,45.63
2023-03-04T16:57:58.987Z,45.07
2023-03-04T17:00:27.825Z,45.81
2023-03-04T17:02:55.868Z,43.54
2023-03-04T17:05:24.100Z,46.20
2023-03-04T17:07:51.729Z,45.54
2023-03-04T17:10:19.456Z,45.87
2023-03-04T17:12:49.715Z,44.97
2023-03-04T17:15:17.318Z,43.18
2023-03-04T17:17:45.446Z,42.58
2023-03-04T17:20:14.789Z,45.56
2023-03-04T17:22:42.765Z,45.43
2023-03-04T17:25:10.816Z,44.80
2023-03-04T17:27:38.539Z,45.21
2023-03-04T17:30:10.464Z,46.92
2023-03-04T17:32:39.563Z,46.21
2023-03-04T17:35:08.042Z,46.72
2023-03-04T17:37:36.426Z,47.37
2023-03-04T17:40:04.617Z,46.63
2023-03-04T17:42:32.349Z,46.66
2023-03-04T17:44:59.955Z,48.01
2023-03-04T17:47:28.950Z,47.69
2023-03-04T17:49:56.620Z,48.86
2023-03-04T17:52:24.343Z,48.65
2023-03-04T17:54:51.944Z,49.30
2023-03-04T17:57:19.575Z,49.67
2023-03-04T17:59:47.257Z,49.52
2023-03-04T18:02:14.905Z,49.29
2023-03-04T18:04:45.143Z,49.05
2023-03-04T18:07:12.782Z,47.97
2023-03-04T18:09:40.397Z,46.14
2023-03-04T18:12:08.415Z,50.37
2023-03-04T18:14:35.990Z,51.23
2023-03-04T18:17:03.695Z,52.28
2023-03-04T18:19:31.434Z,51.34
2023-03-04T18:22:00.405Z,47.32
2023-03-04T18:24:28.049Z,49.11
2023-03-04T18:26:56.777Z,48.13
2023-03-04T18:29:24.376Z,50.15
2023-03-04T18:31:51.988Z,49.18
2023-03-04T18:34:19.692Z,46.72
2023-03-04T18:36:48.437Z,48.94
2023-03-04T18:39:17.625Z,48.14
2023-03-04T18:41:45.271Z,48.88
2023-03-04T18:44:12.928Z,51.18
2023-03-04T18:46:41.114Z,50.78
2023-03-04T18:49:10.101Z,49.42
2023-03-04T18:51:37.855Z,50.31
2023-03-04T18:54:05.948Z,49.51
2023-03-04T18:56:38.121Z,50.86
2023-03-04T18:59:06.619Z,49.40
2023-03-04T19:01:34.202Z,52.39
2023-03-04T19:04:04.563Z,48.53
2023-03-04T19:06:32.413Z,51.75
2023-03-04T19:09:00.126Z,49.96
2023-03-04T19:11:29.886Z,49.77
2023-03-04T19:13:58.921Z,51.67
2023-03-04T19:16:26.603Z,50.08
2023-03-04T19:18:54.503Z,49.48
2023-03-04T19:21:22.170Z,48.52
2023-03-04T19:23:50.034Z,50.14
2023-03-04T19:26:17.655Z,50.77
2023-03-04T19:28:45.274Z,49.73
2023-03-04T19:31:14.292Z,51.73
2023-03-04T19:33:42.239Z,51.65
2023-03-04T19:36:10.222Z,51.40
2023-03-04T19:38:38.181Z,50.54
2023-03-04T19:41:09.219Z,51.22
2023-03-04T19:43:37.041Z,54.25
2023-03-04T19:46:04.859Z,54.12
2023-03-04T19:48:33.950Z,51.95
2023-03-04T19:51:01.783Z,53.31
2023-03-04T19:53:29.714Z,51.60
2023-03-04T19:55:57.346Z,49.94
2023-03-04T19:58:25.071Z,50.45
2023-03-04T20:00:54.777Z,49.59
2023-03-04T20:03:23.954Z,54.58
2023-03-04T20:05:52.992Z,54.29
2023-03-04T20:08:20.679Z,53.17
2023-03-04T20:10:48.358Z,53.01
2023-03-04T20:13:16.003Z,52.48
2023-03-04T20:15:44.246Z,52.38
2023-03-04T20:18:11.862Z,51.39
2023-03-04T20:20:39.614Z,52.00
2023-03-04T20:23:09.328Z,49.89
2023-03-04T20:25:37.170Z,55.01
2023-03-04T20:28:04.931Z,53.37
2023-03-04T20:30:32.595Z,54.51
2023-03-04T20:33:00.259Z,54.10
2023-03-04T20:35:28.241Z,54.31
2023-03-04T20:37:56.416Z,51.58
2023-03-04T20:40:25.460Z,51.47
2023-03-04T20:42:53.077Z,54.65
2023-03-04T20:45:22.010Z,53.51
2023-03-04T20:47:49.838Z,54.95
2023-03-04T20:50:17.816Z,57.44
2023-03-04T20:52:48.538Z,55.91
2023-03-04T20:55:16.268Z,54.80
2023-03-04T20:57:45.730Z,55.46
2023-03-04T21:00:13.943Z,54.43
2023-03-04T21:02:41.677Z,52.73
2023-03-04T21:05:09.776Z,53.30
2023-03-04T21:07:37.473Z,54.37
2023-03-04T21:10:05.617Z,54.82
2023-03-04T21:12:33.275Z,55.22
2023-03-04T21:15:02.295Z,53.35
2023-03-04T21:17:29.934Z,55.28
2023-03-04T21:19:57.515Z,56.89
2023-03-04T21:22:26.879Z,53.71
2023-03-04T21:24:54.450Z,52.41
2023-03-04T21:27:22.149Z,54.15
2023-03-04T21:29:50.335Z,51.36
2023-03-04T21:32:24.748Z,53.11
2023-03-04T21:34:53.166Z,53.85
2023-03-04T21:37:21.007Z,50.10
2023-03-04T21:39:48.628Z,52.86
2023-03-04T21:42:16.318Z,54.69
2023-03-04T21:44:52.000Z,54.84
2023-03-04T21:47:21.375Z,55.82
2023-03-04T21:49:49.046Z,58.33
2023-03-04T21:52:16.886Z,59.04
2023-03-04T21:54:44.577Z,61.19
2023-03-04T21:57:13.367Z,71.03
2023-03-04T21:59:41.081Z,65.60
2023-03-04T22:02:08.734Z,68.13
2023-03-04T22:04:37.750Z,63.88
2023-03-04T22:07:05.426Z,61.09
2023-03-04T22:09:33.173Z,65.57
2023-03-04T22:12:00.786Z,61.43
2023-03-04T22:14:29.473Z,60.83
2023-03-04T22:16:57.117Z,55.56
2023-03-04T22:19:25.034Z,58.25
2023-03-04T22:21:54.299Z,59.62
2023-03-04T22:24:22.318Z,55.11
2023-03-04T22:26:49.976Z,55.38
2023-03-04T22:29:17.609Z,53.81
2023-03-04T22:31:45.973Z,55.58
2023-03-04T22:34:14.858Z,57.42
2023-03-04T22:36:42.977Z,60.26
2023-03-04T22:39:13.265Z,58.50
2023-03-04T22:41:40.936Z,56.33
2023-03-04T22:44:08.729Z,57.76
2023-03-04T22:46:38.079Z,60.53
2023-03-04T22:49:06.248Z,65.18
2023-03-04T22:51:33.846Z,65.14
2023-03-04T22:54:01.693Z,60.13
2023-03-04T22:56:30.689Z,57.72
2023-03-04T22:58:58.346Z,62.68
2023-03-04T23:01:26.032Z,61.21
2023-03-04T23:03:53.746Z,67.48
2023-03-04T23:06:21.949Z,69.71
2023-03-04T23:08:50.168Z,71.08
2023-03-04T23:11:19.320Z,72.37
2023-03-04T23:13:48.488Z,74.63
2023-03-04T23:16:16.317Z,80.46
2023-03-04T23:18:46.570Z,74.78
2023-03-04T23:21:15.266Z,77.67
2023-03-04T23:23:42.934Z,83.52
2023-03-04T23:26:14.698Z,79.77
2023-03-04T23:28:42.336Z,100.00
2023-03-04T23:31:11.585Z,100.00
2023-03-04T23:33:39.483Z,100.00
2023-03-04T23:36:09.647Z,100.00
2023-03-04T23:38:37.265Z,100.00
2023-03-04T23:41:04.990Z,99.71
2023-03-04T23:43:32.923Z,100.00
2023-03-04T23:46:00.634Z,100.00
2023-03-04T23:48:29.630Z,100.00
2023-03-04T23:50:59.179Z,100.00
2023-03-04T23:53:26.789Z,100.00
2023-03-04T23:55:54.411Z,100.00
2023-03-04T23:58:21.980Z,100.00
